sensor_id;sensor_type;location;lat;lon;timestamp;P1;durP1;ratioP1;P2;durP2;ratioP2
6282;SDS011;3174;53.486;9.568;2022-09-09T00:01:43;16.50;;;10.40;;
6282;SDS011;3174;53.486;9.568;2022-09-09T00:04:18;8.33;;;5.27;;
6282;SDS011;3174;53.486;9.568;2022-09-09T00:06:59;17.13;;;10.83;;
6282;SDS011;3174;53.486;9.568;2022-09-09T00:09:33;15.97;;;10.37;;
6282;SDS011;3174;53.486;9.568;2022-09-09T00:12:05;15.13;;;9.87;;
6282;SDS011;3174;53.486;9.568;2022-09-09T00:14:40;14.93;;;9.50;;
6282;SDS011;3174;53.486;9.568;2022-09-09T00:17:14;15.60;;;10.23;;
6282;SDS011;3174;53.486;9.568;2022-09-09T00:19:48;13.90;;;9.47;;
6282;SDS011;3174;53.486;9.568;2022-09-09T00:22:20;13.83;;;8.23;;
6282;SDS011;3174;53.486;9.568;2022-09-09T00:24:51;14.93;;;9.30;;
6282;SDS011;3174;53.486;9.568;2022-09-09T00:27:24;15.00;;;8.37;;
6282;SDS011;3174;53.486;9.568;2022-09-09T00:29:56;17.83;;;9.83;;
6282;SDS011;3174;53.486;9.568;2022-09-09T00:32:27;10.90;;;6.93;;
6282;SDS011;3174;53.486;9.568;2022-09-09T00:34:58;14.37;;;9.43;;
6282;SDS011;3174;53.486;9.568;2022-09-09T00:37:28;11.20;;;7.43;;
6282;SDS011;3174;53.486;9.568;2022-09-09T00:40:00;14.47;;;8.47;;
6282;SDS011;3174;53.486;9.568;2022-09-09T00:42:32;16.37;;;9.40;;
6282;SDS011;3174;53.486;9.568;2022-09-09T00:45:12;14.03;;;9.70;;
6282;SDS011;3174;53.486;9.568;2022-09-09T00:47:51;10.27;;;7.27;;
6282;SDS011;3174;53.486;9.568;2022-09-09T00:50:35;13.60;;;8.67;;
6282;SDS011;3174;53.486;9.568;2022-09-09T00:53:18;14.03;;;7.47;;
6282;SDS011;3174;53.486;9.568;2022-09-09T00:55:54;5.43;;;3.80;;
6282;SDS011;3174;53.486;9.568;2022-09-09T00:58:26;8.03;;;5.23;;
6282;SDS011;3174;53.486;9.568;2022-09-09T01:00:56;15.67;;;9.40;;
6282;SDS011;3174;53.486;9.568;2022-09-09T01:03:29;13.47;;;9.03;;
6282;SDS011;3174;53.486;9.568;2022-09-09T01:06:11;12.87;;;8.53;;
6282;SDS011;3174;53.486;9.568;2022-09-09T01:11:36;13.53;;;8.90;;
6282;SDS011;3174;53.486;9.568;2022-09-09T01:14:12;14.30;;;9.03;;
6282;SDS011;3174;53.486;9.568;2022-09-09T01:16:44;4.83;;;4.03;;
6282;SDS011;3174;53.486;9.568;2022-09-09T01:19:15;14.70;;;8.53;;
6282;SDS011;3174;53.486;9.568;2022-09-09T01:21:48;11.87;;;6.70;;
6282;SDS011;3174;53.486;9.568;2022-09-09T01:24:22;4.87;;;3.50;;
6282;SDS011;3174;53.486;9.568;2022-09-09T01:26:56;13.20;;;8.53;;
6282;SDS011;3174;53.486;9.568;2022-09-09T01:29:24;11.20;;;6.93;;
6282;SDS011;3174;53.486;9.568;2022-09-09T01:31:53;10.33;;;6.40;;
6282;SDS011;3174;53.486;9.568;2022-09-09T01:34:23;9.70;;;6.03;;
6282;SDS011;3174;53.486;9.568;2022-09-09T01:36:54;7.30;;;4.83;;
6282;SDS011;3174;53.486;9.568;2022-09-09T01:39:25;8.53;;;5.80;;
6282;SDS011;3174;53.486;9.568;2022-09-09T01:41:53;6.50;;;3.20;;
6282;SDS011;3174;53.486;9.568;2022-09-09T01:44:24;10.03;;;6.63;;
6282;SDS011;3174;53.486;9.568;2022-09-09T01:46:52;8.13;;;5.10;;
6282;SDS011;3174;53.486;9.568;2022-09-09T01:49:20;4.23;;;3.20;;
6282;SDS011;3174;53.486;9.568;2022-09-09T01:51:49;3.93;;;3.23;;
6282;SDS011;3174;53.486;9.568;2022-09-09T01:54:19;7.70;;;4.83;;
6282;SDS011;3174;53.486;9.568;2022-09-09T01:56:52;11.37;;;7.00;;
6282;SDS011;3174;53.486;9.568;2022-09-09T01:59:37;12.80;;;8.53;;
6282;SDS011;3174;53.486;9.568;2022-09-09T02:02:17;10.53;;;7.57;;
6282;SDS011;3174;53.486;9.568;2022-09-09T02:04:47;13.97;;;8.63;;
6282;SDS011;3174;53.486;9.568;2022-09-09T02:07:21;13.00;;;8.43;;
6282;SDS011;3174;53.486;9.568;2022-09-09T02:09:58;12.33;;;8.30;;
6282;SDS011;3174;53.486;9.568;2022-09-09T02:12:30;9.47;;;5.83;;
6282;SDS011;3174;53.486;9.568;2022-09-09T02:15:00;12.13;;;7.53;;
6282;SDS011;3174;53.486;9.568;2022-09-09T02:17:32;10.20;;;6.17;;
6282;SDS011;3174;53.486;9.568;2022-09-09T02:20:03;4.60;;;3.77;;
6282;SDS011;3174;53.486;9.568;2022-09-09T02:22:33;3.90;;;3.00;;
6282;SDS011;3174;53.486;9.568;2022-09-09T02:25:02;12.23;;;6.93;;
6282;SDS011;3174;53.486;9.568;2022-09-09T02:27:34;5.53;;;4.10;;
6282;SDS011;3174;53.486;9.568;2022-09-09T02:30:02;10.57;;;7.70;;
6282;SDS011;3174;53.486;9.568;2022-09-09T02:32:32;12.03;;;7.80;;
6282;SDS011;3174;53.486;9.568;2022-09-09T02:35:02;13.30;;;7.97;;
6282;SDS011;3174;53.486;9.568;2022-09-09T02:37:34;12.27;;;7.87;;
6282;SDS011;3174;53.486;9.568;2022-09-09T02:40:04;11.17;;;7.40;;
6282;SDS011;3174;53.486;9.568;2022-09-09T02:42:39;9.37;;;4.37;;
6282;SDS011;3174;53.486;9.568;2022-09-09T02:45:07;14.73;;;8.67;;
6282;SDS011;3174;53.486;9.568;2022-09-09T02:47:37;12.43;;;8.07;;
6282;SDS011;3174;53.486;9.568;2022-09-09T02:50:09;10.03;;;6.97;;
6282;SDS011;3174;53.486;9.568;2022-09-09T02:52:44;11.50;;;7.93;;
6282;SDS011;3174;53.486;9.568;2022-09-09T02:55:16;12.33;;;7.70;;
6282;SDS011;3174;53.486;9.568;2022-09-09T02:57:49;9.13;;;6.23;;
6282;SDS011;3174;53.486;9.568;2022-09-09T03:00:22;14.13;;;7.87;;
6282;SDS011;3174;53.486;9.568;2022-09-09T03:02:51;12.53;;;7.87;;
6282;SDS011;3174;53.486;9.568;2022-09-09T03:05:20;13.17;;;7.33;;
6282;SDS011;3174;53.486;9.568;2022-09-09T03:07:48;11.97;;;7.43;;
6282;SDS011;3174;53.486;9.568;2022-09-09T03:10:17;6.20;;;4.10;;
6282;SDS011;3174;53.486;9.568;2022-09-09T03:12:45;11.53;;;7.77;;
6282;SDS011;3174;53.486;9.568;2022-09-09T03:15:14;9.10;;;5.60;;
6282;SDS011;3174;53.486;9.568;2022-09-09T03:17:43;11.83;;;6.57;;
6282;SDS011;3174;53.486;9.568;2022-09-09T03:20:11;13.07;;;8.27;;
6282;SDS011;3174;53.486;9.568;2022-09-09T03:22:38;11.53;;;7.20;;
6282;SDS011;3174;53.486;9.568;2022-09-09T03:25:07;14.70;;;8.30;;
6282;SDS011;3174;53.486;9.568;2022-09-09T03:27:35;14.23;;;8.03;;
6282;SDS011;3174;53.486;9.568;2022-09-09T03:30:03;9.90;;;6.37;;
6282;SDS011;3174;53.486;9.568;2022-09-09T03:32:33;14.03;;;8.40;;
6282;SDS011;3174;53.486;9.568;2022-09-09T03:35:01;8.70;;;5.33;;
6282;SDS011;3174;53.486;9.568;2022-09-09T03:37:29;13.63;;;8.47;;
6282;SDS011;3174;53.486;9.568;2022-09-09T03:39:58;17.53;;;7.77;;
6282;SDS011;3174;53.486;9.568;2022-09-09T03:42:26;12.10;;;7.53;;
6282;SDS011;3174;53.486;9.568;2022-09-09T03:44:54;9.90;;;6.63;;
6282;SDS011;3174;53.486;9.568;2022-09-09T03:47:24;14.10;;;8.23;;
6282;SDS011;3174;53.486;9.568;2022-09-09T03:49:53;13.60;;;7.27;;
6282;SDS011;3174;53.486;9.568;2022-09-09T03:52:21;13.17;;;7.47;;
6282;SDS011;3174;53.486;9.568;2022-09-09T03:54:52;7.27;;;4.30;;
6282;SDS011;3174;53.486;9.568;2022-09-09T03:57:20;9.37;;;6.13;;
6282;SDS011;3174;53.486;9.568;2022-09-09T03:59:48;10.17;;;6.43;;
6282;SDS011;3174;53.486;9.568;2022-09-09T04:02:16;12.00;;;6.30;;
6282;SDS011;3174;53.486;9.568;2022-09-09T04:04:44;13.63;;;7.87;;
6282;SDS011;3174;53.486;9.568;2022-09-09T04:07:13;10.13;;;6.00;;
6282;SDS011;3174;53.486;9.568;2022-09-09T04:09:42;15.67;;;7.47;;
6282;SDS011;3174;53.486;9.568;2022-09-09T04:12:10;10.63;;;7.07;;
6282;SDS011;3174;53.486;9.568;2022-09-09T04:14:39;11.37;;;7.53;;
6282;SDS011;3174;53.486;9.568;2022-09-09T04:17:07;5.93;;;3.37;;
6282;SDS011;3174;53.486;9.568;2022-09-09T04:19:35;7.47;;;4.57;;
6282;SDS011;3174;53.486;9.568;2022-09-09T04:22:03;14.93;;;8.07;;
6282;SDS011;3174;53.486;9.568;2022-09-09T04:24:32;10.13;;;6.47;;
6282;SDS011;3174;53.486;9.568;2022-09-09T04:27:01;10.23;;;6.57;;
6282;SDS011;3174;53.486;9.568;2022-09-09T04:29:29;7.93;;;4.57;;
6282;SDS011;3174;53.486;9.568;2022-09-09T04:31:57;9.67;;;5.23;;
6282;SDS011;3174;53.486;9.568;2022-09-09T04:34:25;11.70;;;7.20;;
6282;SDS011;3174;53.486;9.568;2022-09-09T04:36:53;6.60;;;3.20;;
6282;SDS011;3174;53.486;9.568;2022-09-09T04:39:21;7.53;;;5.37;;
6282;SDS011;3174;53.486;9.568;2022-09-09T04:41:50;6.53;;;4.60;;
6282;SDS011;3174;53.486;9.568;2022-09-09T04:44:19;9.33;;;5.73;;
6282;SDS011;3174;53.486;9.568;2022-09-09T04:46:47;10.10;;;6.60;;
6282;SDS011;3174;53.486;9.568;2022-09-09T04:49:15;9.20;;;5.57;;
6282;SDS011;3174;53.486;9.568;2022-09-09T04:51:43;5.87;;;3.90;;
6282;SDS011;3174;53.486;9.568;2022-09-09T04:54:13;5.83;;;4.83;;
6282;SDS011;3174;53.486;9.568;2022-09-09T04:56:41;9.57;;;6.23;;
6282;SDS011;3174;53.486;9.568;2022-09-09T04:59:11;10.20;;;5.80;;
6282;SDS011;3174;53.486;9.568;2022-09-09T05:01:39;10.43;;;6.77;;
6282;SDS011;3174;53.486;9.568;2022-09-09T05:04:07;9.77;;;5.77;;
6282;SDS011;3174;53.486;9.568;2022-09-09T05:06:35;8.13;;;5.70;;
6282;SDS011;3174;53.486;9.568;2022-09-09T05:09:03;10.40;;;5.37;;
6282;SDS011;3174;53.486;9.568;2022-09-09T05:11:32;7.80;;;4.33;;
6282;SDS011;3174;53.486;9.568;2022-09-09T05:14:02;7.97;;;5.13;;
6282;SDS011;3174;53.486;9.568;2022-09-09T05:16:32;8.57;;;5.53;;
6282;SDS011;3174;53.486;9.568;2022-09-09T05:19:00;8.80;;;5.23;;
6282;SDS011;3174;53.486;9.568;2022-09-09T05:21:29;8.57;;;4.67;;
6282;SDS011;3174;53.486;9.568;2022-09-09T05:23:57;6.83;;;4.47;;
6282;SDS011;3174;53.486;9.568;2022-09-09T05:26:26;12.17;;;6.37;;
6282;SDS011;3174;53.486;9.568;2022-09-09T05:28:55;4.73;;;2.90;;
6282;SDS011;3174;53.486;9.568;2022-09-09T05:31:25;8.47;;;6.03;;
6282;SDS011;3174;53.486;9.568;2022-09-09T05:33:56;7.63;;;4.83;;
6282;SDS011;3174;53.486;9.568;2022-09-09T05:36:25;8.93;;;5.30;;
6282;SDS011;3174;53.486;9.568;2022-09-09T05:38:53;6.90;;;4.33;;
6282;SDS011;3174;53.486;9.568;2022-09-09T05:41:21;8.67;;;4.97;;
6282;SDS011;3174;53.486;9.568;2022-09-09T05:43:49;8.53;;;4.53;;
6282;SDS011;3174;53.486;9.568;2022-09-09T05:46:17;11.60;;;4.97;;
6282;SDS011;3174;53.486;9.568;2022-09-09T05:48:47;6.90;;;4.33;;
6282;SDS011;3174;53.486;9.568;2022-09-09T05:51:19;5.97;;;3.80;;
6282;SDS011;3174;53.486;9.568;2022-09-09T05:53:48;7.70;;;4.80;;
6282;SDS011;3174;53.486;9.568;2022-09-09T05:56:17;6.77;;;4.47;;
6282;SDS011;3174;53.486;9.568;2022-09-09T05:58:48;6.30;;;4.47;;
6282;SDS011;3174;53.486;9.568;2022-09-09T06:01:17;6.73;;;3.73;;
6282;SDS011;3174;53.486;9.568;2022-09-09T06:03:47;8.07;;;3.57;;
6282;SDS011;3174;53.486;9.568;2022-09-09T06:06:16;7.27;;;4.47;;
6282;SDS011;3174;53.486;9.568;2022-09-09T06:08:47;6.53;;;3.80;;
6282;SDS011;3174;53.486;9.568;2022-09-09T06:11:18;6.73;;;4.27;;
6282;SDS011;3174;53.486;9.568;2022-09-09T06:13:47;7.00;;;4.47;;
6282;SDS011;3174;53.486;9.568;2022-09-09T06:16:18;5.77;;;3.70;;
6282;SDS011;3174;53.486;9.568;2022-09-09T06:18:46;7.43;;;4.30;;
6282;SDS011;3174;53.486;9.568;2022-09-09T06:21:16;7.83;;;3.70;;
6282;SDS011;3174;53.486;9.568;2022-09-09T06:23:47;9.70;;;4.30;;
6282;SDS011;3174;53.486;9.568;2022-09-09T06:26:17;5.87;;;3.67;;
6282;SDS011;3174;53.486;9.568;2022-09-09T06:28:46;6.80;;;4.33;;
6282;SDS011;3174;53.486;9.568;2022-09-09T06:31:15;8.90;;;4.20;;
6282;SDS011;3174;53.486;9.568;2022-09-09T06:33:44;6.13;;;3.73;;
6282;SDS011;3174;53.486;9.568;2022-09-09T06:36:13;7.73;;;4.23;;
6282;SDS011;3174;53.486;9.568;2022-09-09T06:38:43;6.20;;;4.20;;
6282;SDS011;3174;53.486;9.568;2022-09-09T06:41:12;6.27;;;3.90;;
6282;SDS011;3174;53.486;9.568;2022-09-09T06:43:41;5.30;;;3.37;;
6282;SDS011;3174;53.486;9.568;2022-09-09T06:46:11;6.27;;;3.30;;
6282;SDS011;3174;53.486;9.568;2022-09-09T06:48:39;7.57;;;3.93;;
6282;SDS011;3174;53.486;9.568;2022-09-09T06:51:08;6.80;;;3.67;;
6282;SDS011;3174;53.486;9.568;2022-09-09T06:53:38;5.17;;;3.20;;
6282;SDS011;3174;53.486;9.568;2022-09-09T06:56:19;6.47;;;3.50;;
6282;SDS011;3174;53.486;9.568;2022-09-09T06:58:49;6.60;;;4.10;;
6282;SDS011;3174;53.486;9.568;2022-09-09T07:01:18;4.33;;;3.50;;
6282;SDS011;3174;53.486;9.568;2022-09-09T07:03:48;7.13;;;3.63;;
6282;SDS011;3174;53.486;9.568;2022-09-09T07:06:18;4.77;;;3.10;;
6282;SDS011;3174;53.486;9.568;2022-09-09T07:08:50;4.17;;;3.07;;
6282;SDS011;3174;53.486;9.568;2022-09-09T07:11:24;5.53;;;2.87;;
6282;SDS011;3174;53.486;9.568;2022-09-09T07:13:53;6.17;;;3.40;;
6282;SDS011;3174;53.486;9.568;2022-09-09T07:16:22;4.40;;;3.43;;
6282;SDS011;3174;53.486;9.568;2022-09-09T07:18:51;5.90;;;3.47;;
6282;SDS011;3174;53.486;9.568;2022-09-09T07:21:24;4.90;;;3.40;;
6282;SDS011;3174;53.486;9.568;2022-09-09T07:23:53;4.73;;;3.10;;
6282;SDS011;3174;53.486;9.568;2022-09-09T07:26:23;4.90;;;2.80;;
6282;SDS011;3174;53.486;9.568;2022-09-09T07:28:53;5.57;;;3.20;;
6282;SDS011;3174;53.486;9.568;2022-09-09T07:31:23;3.50;;;2.73;;
6282;SDS011;3174;53.486;9.568;2022-09-09T07:33:52;7.57;;;3.50;;
6282;SDS011;3174;53.486;9.568;2022-09-09T07:36:21;4.73;;;3.23;;
6282;SDS011;3174;53.486;9.568;2022-09-09T07:38:54;5.57;;;3.30;;
6282;SDS011;3174;53.486;9.568;2022-09-09T07:41:25;5.63;;;3.60;;
6282;SDS011;3174;53.486;9.568;2022-09-09T07:43:54;5.30;;;3.13;;
6282;SDS011;3174;53.486;9.568;2022-09-09T07:46:23;5.23;;;3.30;;
6282;SDS011;3174;53.486;9.568;2022-09-09T07:48:53;5.70;;;3.47;;
6282;SDS011;3174;53.486;9.568;2022-09-09T07:51:22;5.70;;;3.27;;
6282;SDS011;3174;53.486;9.568;2022-09-09T07:53:52;5.30;;;3.70;;
6282;SDS011;3174;53.486;9.568;2022-09-09T07:56:21;5.90;;;3.23;;
6282;SDS011;3174;53.486;9.568;2022-09-09T07:58:51;4.40;;;2.97;;
6282;SDS011;3174;53.486;9.568;2022-09-09T08:01:23;5.53;;;3.20;;
6282;SDS011;3174;53.486;9.568;2022-09-09T08:03:55;4.23;;;3.07;;
6282;SDS011;3174;53.486;9.568;2022-09-09T08:06:26;4.03;;;2.67;;
6282;SDS011;3174;53.486;9.568;2022-09-09T08:08:54;4.47;;;2.90;;
6282;SDS011;3174;53.486;9.568;2022-09-09T08:11:23;2.90;;;2.23;;
6282;SDS011;3174;53.486;9.568;2022-09-09T08:13:52;7.90;;;3.13;;
6282;SDS011;3174;53.486;9.568;2022-09-09T08:16:27;5.97;;;2.50;;
6282;SDS011;3174;53.486;9.568;2022-09-09T08:18:57;5.90;;;3.00;;
6282;SDS011;3174;53.486;9.568;2022-09-09T08:21:26;6.83;;;3.10;;
6282;SDS011;3174;53.486;9.568;2022-09-09T08:23:56;5.20;;;3.17;;
6282;SDS011;3174;53.486;9.568;2022-09-09T08:26:25;3.33;;;2.13;;
6282;SDS011;3174;53.486;9.568;2022-09-09T08:28:56;3.83;;;2.73;;
6282;SDS011;3174;53.486;9.568;2022-09-09T08:31:27;4.07;;;2.20;;
6282;SDS011;3174;53.486;9.568;2022-09-09T08:33:56;4.37;;;3.10;;
6282;SDS011;3174;53.486;9.568;2022-09-09T08:36:26;5.27;;;3.20;;
6282;SDS011;3174;53.486;9.568;2022-09-09T08:38:56;4.17;;;2.67;;
6282;SDS011;3174;53.486;9.568;2022-09-09T08:41:34;4.13;;;2.90;;
6282;SDS011;3174;53.486;9.568;2022-09-09T08:44:10;5.63;;;2.63;;
6282;SDS011;3174;53.486;9.568;2022-09-09T08:46:44;6.33;;;2.90;;
6282;SDS011;3174;53.486;9.568;2022-09-09T08:49:19;5.13;;;2.97;;
6282;SDS011;3174;53.486;9.568;2022-09-09T08:52:06;3.17;;;1.97;;
6282;SDS011;3174;53.486;9.568;2022-09-09T08:54:38;5.47;;;2.77;;
6282;SDS011;3174;53.486;9.568;2022-09-09T08:57:18;4.47;;;2.53;;
6282;SDS011;3174;53.486;9.568;2022-09-09T08:59:50;4.57;;;2.97;;
6282;SDS011;3174;53.486;9.568;2022-09-09T09:02:20;5.27;;;2.50;;
6282;SDS011;3174;53.486;9.568;2022-09-09T09:04:58;3.57;;;2.43;;
6282;SDS011;3174;53.486;9.568;2022-09-09T09:07:36;5.30;;;2.60;;
6282;SDS011;3174;53.486;9.568;2022-09-09T09:10:13;2.83;;;2.30;;
6282;SDS011;3174;53.486;9.568;2022-09-09T09:13:07;2.50;;;2.13;;
6282;SDS011;3174;53.486;9.568;2022-09-09T09:15:40;4.03;;;2.77;;
6282;SDS011;3174;53.486;9.568;2022-09-09T09:18:10;2.77;;;2.20;;
6282;SDS011;3174;53.486;9.568;2022-09-09T09:20:42;3.30;;;2.00;;
6282;SDS011;3174;53.486;9.568;2022-09-09T09:23:15;5.53;;;2.30;;
6282;SDS011;3174;53.486;9.568;2022-09-09T09:25:49;4.20;;;2.30;;
6282;SDS011;3174;53.486;9.568;2022-09-09T09:28:18;5.40;;;2.40;;
6282;SDS011;3174;53.486;9.568;2022-09-09T09:30:53;5.20;;;2.47;;
6282;SDS011;3174;53.486;9.568;2022-09-09T09:33:24;3.13;;;2.40;;
6282;SDS011;3174;53.486;9.568;2022-09-09T09:35:55;3.23;;;1.93;;
6282;SDS011;3174;53.486;9.568;2022-09-09T09:38:23;3.10;;;2.17;;
6282;SDS011;3174;53.486;9.568;2022-09-09T09:41:13;2.77;;;1.90;;
6282;SDS011;3174;53.486;9.568;2022-09-09T09:43:41;3.10;;;1.50;;
6282;SDS011;3174;53.486;9.568;2022-09-09T09:46:19;2.47;;;1.60;;
6282;SDS011;3174;53.486;9.568;2022-09-09T09:48:55;1.43;;;1.33;;
6282;SDS011;3174;53.486;9.568;2022-09-09T09:51:24;2.17;;;1.50;;
6282;SDS011;3174;53.486;9.568;2022-09-09T09:53:52;1.83;;;1.47;;
6282;SDS011;3174;53.486;9.568;2022-09-09T09:56:27;2.63;;;1.60;;
6282;SDS011;3174;53.486;9.568;2022-09-09T09:58:56;2.27;;;2.00;;
6282;SDS011;3174;53.486;9.568;2022-09-09T10:01:26;2.57;;;1.50;;
6282;SDS011;3174;53.486;9.568;2022-09-09T10:03:57;2.33;;;1.97;;
6282;SDS011;3174;53.486;9.568;2022-09-09T10:06:30;2.10;;;1.67;;
6282;SDS011;3174;53.486;9.568;2022-09-09T10:08:59;2.03;;;1.33;;
6282;SDS011;3174;53.486;9.568;2022-09-09T10:11:30;2.47;;;1.63;;
6282;SDS011;3174;53.486;9.568;2022-09-09T10:14:07;4.00;;;1.97;;
6282;SDS011;3174;53.486;9.568;2022-09-09T10:16:48;4.57;;;1.83;;
6282;SDS011;3174;53.486;9.568;2022-09-09T10:19:26;4.03;;;2.13;;
6282;SDS011;3174;53.486;9.568;2022-09-09T10:27:52;3.47;;;2.47;;
6282;SDS011;3174;53.486;9.568;2022-09-09T10:30:33;3.97;;;2.53;;
6282;SDS011;3174;53.486;9.568;2022-09-09T10:33:13;3.60;;;2.23;;
6282;SDS011;3174;53.486;9.568;2022-09-09T10:35:47;3.07;;;2.57;;
6282;SDS011;3174;53.486;9.568;2022-09-09T10:38:20;5.07;;;2.80;;
6282;SDS011;3174;53.486;9.568;2022-09-09T10:41:07;3.83;;;2.23;;
6282;SDS011;3174;53.486;9.568;2022-09-09T10:43:44;3.40;;;3.10;;
6282;SDS011;3174;53.486;9.568;2022-09-09T10:46:23;4.53;;;2.27;;
6282;SDS011;3174;53.486;9.568;2022-09-09T10:49:01;2.53;;;2.33;;
6282;SDS011;3174;53.486;9.568;2022-09-09T10:51:36;1.83;;;1.73;;
6282;SDS011;3174;53.486;9.568;2022-09-09T10:54:13;3.73;;;2.20;;
6282;SDS011;3174;53.486;9.568;2022-09-09T10:56:52;3.77;;;2.20;;
6282;SDS011;3174;53.486;9.568;2022-09-09T10:59:23;3.27;;;2.53;;
6282;SDS011;3174;53.486;9.568;2022-09-09T11:01:53;4.37;;;2.53;;
6282;SDS011;3174;53.486;9.568;2022-09-09T11:04:27;6.67;;;2.03;;
6282;SDS011;3174;53.486;9.568;2022-09-09T11:07:01;4.47;;;2.30;;
6282;SDS011;3174;53.486;9.568;2022-09-09T11:09:38;5.37;;;2.20;;
6282;SDS011;3174;53.486;9.568;2022-09-09T11:12:09;2.40;;;2.20;;
6282;SDS011;3174;53.486;9.568;2022-09-09T11:14:41;4.63;;;2.47;;
6282;SDS011;3174;53.486;9.568;2022-09-09T11:17:12;3.43;;;2.30;;
6282;SDS011;3174;53.486;9.568;2022-09-09T11:19:44;4.53;;;2.60;;
6282;SDS011;3174;53.486;9.568;2022-09-09T11:22:15;3.67;;;2.67;;
6282;SDS011;3174;53.486;9.568;2022-09-09T11:24:47;3.93;;;2.70;;
6282;SDS011;3174;53.486;9.568;2022-09-09T11:27:19;4.40;;;2.37;;
6282;SDS011;3174;53.486;9.568;2022-09-09T11:30:03;3.37;;;2.03;;
6282;SDS011;3174;53.486;9.568;2022-09-09T11:32:44;4.80;;;2.83;;
6282;SDS011;3174;53.486;9.568;2022-09-09T11:35:29;2.70;;;2.50;;
6282;SDS011;3174;53.486;9.568;2022-09-09T11:38:08;5.23;;;2.50;;
6282;SDS011;3174;53.486;9.568;2022-09-09T11:40:47;4.50;;;2.60;;
6282;SDS011;3174;53.486;9.568;2022-09-09T11:43:25;2.90;;;2.23;;
6282;SDS011;3174;53.486;9.568;2022-09-09T11:45:55;3.50;;;2.50;;
6282;SDS011;3174;53.486;9.568;2022-09-09T11:48:29;3.70;;;1.60;;
6282;SDS011;3174;53.486;9.568;2022-09-09T11:51:04;2.40;;;1.90;;
6282;SDS011;3174;53.486;9.568;2022-09-09T11:53:47;1.90;;;1.67;;
6282;SDS011;3174;53.486;9.568;2022-09-09T11:56:24;1.70;;;1.50;;
6282;SDS011;3174;53.486;9.568;2022-09-09T11:58:54;3.27;;;1.53;;
6282;SDS011;3174;53.486;9.568;2022-09-09T12:01:30;3.97;;;1.70;;
6282;SDS011;3174;53.486;9.568;2022-09-09T12:04:05;4.03;;;1.93;;
6282;SDS011;3174;53.486;9.568;2022-09-09T12:06:58;2.40;;;1.50;;
6282;SDS011;3174;53.486;9.568;2022-09-09T12:09:43;1.97;;;1.50;;
6282;SDS011;3174;53.486;9.568;2022-09-09T12:12:21;3.57;;;1.83;;
6282;SDS011;3174;53.486;9.568;2022-09-09T12:14:58;3.27;;;1.63;;
6282;SDS011;3174;53.486;9.568;2022-09-09T12:17:47;3.93;;;1.90;;
6282;SDS011;3174;53.486;9.568;2022-09-09T12:20:19;3.77;;;1.70;;
6282;SDS011;3174;53.486;9.568;2022-09-09T12:22:56;2.27;;;1.63;;
6282;SDS011;3174;53.486;9.568;2022-09-09T12:25:32;3.40;;;1.43;;
6282;SDS011;3174;53.486;9.568;2022-09-09T12:28:09;2.80;;;1.70;;
6282;SDS011;3174;53.486;9.568;2022-09-09T12:30:41;2.87;;;1.53;;
6282;SDS011;3174;53.486;9.568;2022-09-09T12:33:16;2.63;;;1.60;;
6282;SDS011;3174;53.486;9.568;2022-09-09T12:35:45;2.53;;;1.20;;
6282;SDS011;3174;53.486;9.568;2022-09-09T12:38:21;3.50;;;1.30;;
6282;SDS011;3174;53.486;9.568;2022-09-09T12:40:54;3.50;;;1.17;;
6282;SDS011;3174;53.486;9.568;2022-09-09T12:43:24;4.07;;;1.23;;
6282;SDS011;3174;53.486;9.568;2022-09-09T12:45:53;2.60;;;1.37;;
6282;SDS011;3174;53.486;9.568;2022-09-09T12:48:26;3.27;;;1.50;;
6282;SDS011;3174;53.486;9.568;2022-09-09T12:51:01;2.40;;;1.43;;
6282;SDS011;3174;53.486;9.568;2022-09-09T12:53:32;1.60;;;1.50;;
6282;SDS011;3174;53.486;9.568;2022-09-09T12:56:03;2.90;;;1.60;;
6282;SDS011;3174;53.486;9.568;2022-09-09T12:58:33;2.80;;;1.50;;
6282;SDS011;3174;53.486;9.568;2022-09-09T13:01:03;3.90;;;1.60;;
6282;SDS011;3174;53.486;9.568;2022-09-09T13:03:33;7.50;;;1.60;;
6282;SDS011;3174;53.486;9.568;2022-09-09T13:06:17;4.60;;;1.80;;
6282;SDS011;3174;53.486;9.568;2022-09-09T13:08:56;5.20;;;1.50;;
6282;SDS011;3174;53.486;9.568;2022-09-09T13:11:27;2.00;;;1.50;;
6282;SDS011;3174;53.486;9.568;2022-09-09T13:13:57;4.27;;;1.93;;
6282;SDS011;3174;53.486;9.568;2022-09-09T13:16:26;5.40;;;2.30;;
6282;SDS011;3174;53.486;9.568;2022-09-09T13:19:00;2.90;;;1.90;;
6282;SDS011;3174;53.486;9.568;2022-09-09T13:21:33;3.70;;;2.17;;
6282;SDS011;3174;53.486;9.568;2022-09-09T13:24:19;2.53;;;1.60;;
6282;SDS011;3174;53.486;9.568;2022-09-09T13:26:54;2.83;;;1.50;;
6282;SDS011;3174;53.486;9.568;2022-09-09T13:29:23;1.90;;;1.70;;
6282;SDS011;3174;53.486;9.568;2022-09-09T13:31:51;3.00;;;1.50;;
6282;SDS011;3174;53.486;9.568;2022-09-09T13:34:26;3.33;;;1.80;;
6282;SDS011;3174;53.486;9.568;2022-09-09T13:36:55;1.30;;;1.20;;
6282;SDS011;3174;53.486;9.568;2022-09-09T13:39:29;2.47;;;1.30;;
6282;SDS011;3174;53.486;9.568;2022-09-09T13:41:57;1.70;;;1.23;;
6282;SDS011;3174;53.486;9.568;2022-09-09T13:44:26;3.03;;;1.40;;
6282;SDS011;3174;53.486;9.568;2022-09-09T13:47:02;2.30;;;1.70;;
6282;SDS011;3174;53.486;9.568;2022-09-09T13:49:36;3.53;;;1.50;;
6282;SDS011;3174;53.486;9.568;2022-09-09T13:52:04;1.87;;;1.30;;
6282;SDS011;3174;53.486;9.568;2022-09-09T13:54:38;5.47;;;1.80;;
6282;SDS011;3174;53.486;9.568;2022-09-09T13:57:14;2.43;;;1.50;;
6282;SDS011;3174;53.486;9.568;2022-09-09T13:59:43;2.77;;;1.70;;
6282;SDS011;3174;53.486;9.568;2022-09-09T14:02:31;4.43;;;1.80;;
6282;SDS011;3174;53.486;9.568;2022-09-09T14:05:00;2.20;;;1.63;;
6282;SDS011;3174;53.486;9.568;2022-09-09T14:07:28;3.93;;;1.90;;
6282;SDS011;3174;53.486;9.568;2022-09-09T14:09:57;2.67;;;1.60;;
6282;SDS011;3174;53.486;9.568;2022-09-09T14:12:26;2.17;;;1.40;;
6282;SDS011;3174;53.486;9.568;2022-09-09T14:14:54;4.47;;;1.60;;
6282;SDS011;3174;53.486;9.568;2022-09-09T14:17:22;4.87;;;1.90;;
6282;SDS011;3174;53.486;9.568;2022-09-09T14:19:51;2.03;;;1.70;;
6282;SDS011;3174;53.486;9.568;2022-09-09T14:22:19;2.83;;;2.07;;
6282;SDS011;3174;53.486;9.568;2022-09-09T14:24:47;1.90;;;1.60;;
6282;SDS011;3174;53.486;9.568;2022-09-09T14:27:17;4.97;;;2.13;;
6282;SDS011;3174;53.486;9.568;2022-09-09T14:29:46;6.27;;;2.00;;
6282;SDS011;3174;53.486;9.568;2022-09-09T14:32:14;5.03;;;2.10;;
6282;SDS011;3174;53.486;9.568;2022-09-09T14:34:42;5.97;;;2.50;;
6282;SDS011;3174;53.486;9.568;2022-09-09T14:37:10;3.90;;;1.63;;
6282;SDS011;3174;53.486;9.568;2022-09-09T14:39:38;1.70;;;1.27;;
6282;SDS011;3174;53.486;9.568;2022-09-09T14:42:07;3.90;;;2.10;;
6282;SDS011;3174;53.486;9.568;2022-09-09T14:44:38;2.43;;;2.00;;
6282;SDS011;3174;53.486;9.568;2022-09-09T14:47:10;1.97;;;1.80;;
6282;SDS011;3174;53.486;9.568;2022-09-09T14:49:40;1.43;;;1.33;;
6282;SDS011;3174;53.486;9.568;2022-09-09T14:52:12;2.23;;;1.50;;
6282;SDS011;3174;53.486;9.568;2022-09-09T14:54:40;3.83;;;1.70;;
6282;SDS011;3174;53.486;9.568;2022-09-09T14:57:08;1.83;;;1.37;;
6282;SDS011;3174;53.486;9.568;2022-09-09T14:59:38;3.60;;;1.70;;
6282;SDS011;3174;53.486;9.568;2022-09-09T15:02:07;2.77;;;1.20;;
6282;SDS011;3174;53.486;9.568;2022-09-09T15:04:36;4.00;;;1.50;;
6282;SDS011;3174;53.486;9.568;2022-09-09T15:07:05;2.30;;;1.67;;
6282;SDS011;3174;53.486;9.568;2022-09-09T15:09:34;1.53;;;1.40;;
6282;SDS011;3174;53.486;9.568;2022-09-09T15:12:03;1.87;;;1.30;;
6282;SDS011;3174;53.486;9.568;2022-09-09T15:14:32;1.97;;;1.40;;
6282;SDS011;3174;53.486;9.568;2022-09-09T15:17:06;2.13;;;1.23;;
6282;SDS011;3174;53.486;9.568;2022-09-09T15:19:43;2.50;;;1.30;;
6282;SDS011;3174;53.486;9.568;2022-09-09T15:22:12;3.23;;;1.40;;
6282;SDS011;3174;53.486;9.568;2022-09-09T15:24:40;1.33;;;1.00;;
6282;SDS011;3174;53.486;9.568;2022-09-09T15:27:22;1.90;;;1.10;;
6282;SDS011;3174;53.486;9.568;2022-09-09T15:29:50;1.60;;;1.40;;
6282;SDS011;3174;53.486;9.568;2022-09-09T15:32:20;2.37;;;1.40;;
6282;SDS011;3174;53.486;9.568;2022-09-09T15:34:48;2.60;;;1.60;;
6282;SDS011;3174;53.486;9.568;2022-09-09T15:37:19;3.03;;;1.53;;
6282;SDS011;3174;53.486;9.568;2022-09-09T15:39:47;1.87;;;1.20;;
6282;SDS011;3174;53.486;9.568;2022-09-09T15:42:16;2.30;;;1.10;;
6282;SDS011;3174;53.486;9.568;2022-09-09T15:44:44;1.43;;;1.27;;
6282;SDS011;3174;53.486;9.568;2022-09-09T15:47:12;3.63;;;1.50;;
6282;SDS011;3174;53.486;9.568;2022-09-09T15:49:42;3.10;;;1.23;;